Time;durP1;ratioP1;P1;durP2;ratioP2;P2;SDS_P1;SDS_P2;PMS_P1;PMS_P2;Temp;Humidity;BMP_temperature;BMP_pressure;BME280_temperature;BME280_humidity;BME280_pressure;Samples;Min_cycle;Max_cycle;Signal;HPM_P1;HPM_P2
2022/10/09 00:01:21;;;;;;;;;;;;;;;11.52;63.58;102643.00;5064941;28;19916;-80
2022/10/09 00:03:49;;;;;;;;;;;;;;;11.49;63.66;102643.88;5061423;28;19916;-80
2022/10/09 00:06:17;;;;;;;;;;;;;;;11.47;63.69;102640.31;5062783;28;20050;-81
2022/10/09 00:08:43;;;;;;;;;;;;;;;11.43;63.47;102636.75;5060517;28;19917;-81
2022/10/09 00:11:11;;;;;;;;;;;;;;;11.45;63.77;102631.44;5060517;28;19916;-81
2022/10/09 00:13:37;;;;;;;;;;;;;;;11.44;63.78;102632.31;5059889;28;19921;-81
2022/10/09 00:16:04;;;;;;;;;;;;;;;11.43;63.62;102636.75;5069855;28;20354;-81
2022/10/09 00:18:30;;;;;;;;;;;;;;;11.42;63.13;102634.97;5072532;28;20006;-81
2022/10/09 00:20:57;;;;;;;;;;;;;;;11.41;63.36;102642.94;5067161;28;19928;-80
2022/10/09 00:23:23;;;;;;;;;;;;;;;11.38;63.96;102645.59;5064239;28;20294;-81
2022/10/09 00:25:50;;;;;;;;;;;;;;;11.36;63.49;102650.00;5064655;28;20011;-81
2022/10/09 00:28:16;;;;;;;;;;;;;;;11.33;63.58;102643.78;5064245;28;20406;-81
2022/10/09 00:30:42;;;;;;;;;;;;;;;11.31;63.61;102640.25;5059722;28;19916;-80
2022/10/09 00:33:08;;;;;;;;;;;;;;;11.32;63.56;102644.66;5066104;28;19927;-81
2022/10/09 00:35:36;;;;;;;;;;;;;;;11.30;63.53;102642.88;5067367;28;20412;-81
2022/10/09 00:38:02;;;;;;;;;;;;;;;11.29;64.07;102643.75;5070034;28;19912;-81
2022/10/09 00:40:28;;;;;;;;;;;;;;;11.28;63.61;102644.66;5061818;28;20407;-80
2022/10/09 00:42:55;;;;;;;;;;;;;;;11.25;64.11;102632.25;5071845;28;19962;-80
2022/10/09 00:45:22;;;;;;;;;;;;;;;11.25;63.59;102634.00;5059677;28;20257;-81
2022/10/09 00:47:50;;;;;;;;;;;;;;;11.22;63.88;102628.69;5066818;28;19923;-81
2022/10/09 00:50:20;;;;;;;;;;;;;;;11.22;63.67;102637.53;5067930;28;20303;-81
2022/10/09 00:52:48;;;;;;;;;;;;;;;11.18;63.91;102627.78;5068415;28;19921;-81
2022/10/09 00:55:14;;;;;;;;;;;;;;;11.16;64.00;102625.13;5063809;28;19924;-81
2022/10/09 00:57:40;;;;;;;;;;;;;;;11.13;64.07;102629.53;5063337;28;20669;-81
2022/10/09 01:00:09;;;;;;;;;;;;;;;11.11;64.32;102632.13;5065100;28;19923;-81
2022/10/09 01:02:35;;;;;;;;;;;;;;;11.10;63.85;102629.47;5065600;28;20010;-81
2022/10/09 01:05:01;;;;;;;;;;;;;;;11.09;63.89;102630.34;5071413;28;19958;-81
2022/10/09 01:07:34;;;;;;;;;;;;;;;11.07;63.73;102627.69;5068481;28;20303;-81
2022/10/09 01:12:51;;;;;;;;;;;;;;;11.03;63.61;102622.34;5065041;28;19919;-77
2022/10/09 01:15:40;;;;;;;;;;;;;;;11.02;63.87;102628.56;5046288;28;20362;-79
2022/10/09 01:18:19;;;;;;;;;;;;;;;10.99;63.96;102626.75;5045944;28;20444;-79
2022/10/09 01:20:52;;;;;;;;;;;;;;;10.96;63.73;102622.31;5043145;28;19913;-80
2022/10/09 01:23:38;;;;;;;;;;;;;;;10.94;63.81;102626.75;5049149;28;19920;-81
2022/10/09 01:26:13;;;;;;;;;;;;;;;10.95;64.11;102624.97;5047594;28;19913;-80
2022/10/09 01:29:11;;;;;;;;;;;;;;;;;;;;;
2022/10/09 01:32:25;;;;;;;;;;;;;;;10.95;63.76;102617.00;5038366;28;19921;-81
2022/10/09 01:34:55;;;;;;;;;;;;;;;10.94;63.82;102617.88;5064695;28;19932;-80
2022/10/09 01:37:24;;;;;;;;;;;;;;;10.92;64.36;102615.22;5050453;28;19917;-80
2022/10/09 01:39:58;;;;;;;;;;;;;;;10.91;64.55;102618.75;5050234;28;19912;-80
2022/10/09 01:42:30;;;;;;;;;;;;;;;10.89;64.35;102607.25;5051627;28;19927;-80
2022/10/09 01:44:58;;;;;;;;;;;;;;;10.89;64.11;102604.59;5051989;28;20020;-80
2022/10/09 01:47:28;;;;;;;;;;;;;;;10.89;64.08;102601.97;5051377;28;19913;-81
2022/10/09 01:50:02;;;;;;;;;;;;;;;10.87;64.39;102594.88;5049703;28;19928;-80
2022/10/09 01:52:54;;;;;;;;;;;;;;;10.88;64.49;102592.22;5046132;28;20008;-80
2022/10/09 01:55:45;;;;;;;;;;;;;;;10.88;64.06;102591.31;5048732;28;19917;-80
2022/10/09 01:58:33;;;;;;;;;;;;;;;;;;;;;
2022/10/09 02:01:12;;;;;;;;;;;;;;;10.87;64.48;102590.44;5049017;28;19919;-80
2022/10/09 02:03:43;;;;;;;;;;;;;;;10.86;64.70;102583.34;5044165;28;19966;-80
2022/10/09 02:06:21;;;;;;;;;;;;;;;10.86;64.32;102578.06;5042112;28;19960;-80
2022/10/09 02:08:57;;;;;;;;;;;;;;;10.86;64.51;102571.88;5045633;28;19952;-80
2022/10/09 02:11:29;;;;;;;;;;;;;;;10.83;64.77;102578.91;5061911;28;19931;-80
2022/10/09 02:14:01;;;;;;;;;;;;;;;10.82;64.38;102569.19;5050677;28;19920;-80
2022/10/09 02:16:41;;;;;;;;;;;;;;;10.82;64.43;102565.66;5044917;28;19935;-80
2022/10/09 02:19:21;;;;;;;;;;;;;;;10.80;64.71;102564.75;5042979;28;19936;-80
2022/10/09 02:21:51;;;;;;;;;;;;;;;10.79;64.46;102565.63;5044790;28;19925;-81
2022/10/09 02:24:19;;;;;;;;;;;;;;;10.78;64.66;102574.44;5036831;28;19989;-81
2022/10/09 02:26:47;;;;;;;;;;;;;;;10.77;64.60;102559.44;5033515;28;19924;-80
2022/10/09 02:29:30;;;;;;;;;;;;;;;10.76;64.30;102565.63;5036333;28;19925;-81
2022/10/09 02:32:16;;;;;;;;;;;;;;;10.75;64.37;102567.38;5033796;28;19929;-80
2022/10/09 02:34:45;;;;;;;;;;;;;;;10.72;64.06;102567.34;5036311;28;19925;-80
2022/10/09 02:37:11;;;;;;;;;;;;;;;10.70;64.36;102562.94;5032147;28;19917;-80
2022/10/09 02:39:42;;;;;;;;;;;;;;;10.67;64.51;102562.00;5033770;28;20342;-81
2022/10/09 02:42:08;;;;;;;;;;;;;;;10.64;64.15;102562.00;5027617;28;19945;-81
2022/10/09 02:44:37;;;;;;;;;;;;;;;10.63;64.48;102554.94;5030065;28;20286;-81
2022/10/09 02:47:03;;;;;;;;;;;;;;;10.62;64.68;102558.44;5032348;28;19923;-80
2022/10/09 02:49:32;;;;;;;;;;;;;;;10.62;65.07;102562.88;5035032;28;19988;-81
2022/10/09 02:52:01;;;;;;;;;;;;;;;10.63;64.97;102559.31;5031801;28;19925;-81
2022/10/09 02:54:27;;;;;;;;;;;;;;;10.62;64.68;102561.09;5034054;28;19917;-81
2022/10/09 02:56:59;;;;;;;;;;;;;;;10.62;64.48;102546.97;5033722;28;20009;-80
2022/10/09 02:59:28;;;;;;;;;;;;;;;10.62;64.70;102547.84;5029539;28;20476;-80
2022/10/09 03:01:54;;;;;;;;;;;;;;;10.60;64.87;102551.38;5029353;28;19920;-80
2022/10/09 03:04:20;;;;;;;;;;;;;;;10.59;64.61;102552.22;5025814;28;20371;-80
2022/10/09 03:06:46;;;;;;;;;;;;;;;10.57;64.90;102549.59;5028671;28;20408;-80
2022/10/09 03:09:32;;;;;;;;;;;;;;;10.55;64.66;102550.44;5028527;28;19917;-79
2022/10/09 03:12:05;;;;;;;;;;;;;;;10.52;64.67;102546.00;5042156;28;19927;-79
2022/10/09 03:14:33;;;;;;;;;;;;;;;10.51;64.78;102554.84;5041546;28;19916;-79
2022/10/09 03:17:11;;;;;;;;;;;;;;;10.49;64.84;102545.97;5044412;28;19917;-80
2022/10/09 03:19:43;;;;;;;;;;;;;;;10.49;64.55;102551.28;5050089;28;19917;-80
2022/10/09 03:22:27;;;;;;;;;;;;;;;10.47;64.89;102545.97;5043036;28;20362;-80
2022/10/09 03:25:04;;;;;;;;;;;;;;;10.45;65.62;102545.06;5043434;28;20575;-80
2022/10/09 03:27:42;;;;;;;;;;;;;;;10.44;65.65;102547.69;5047366;28;19928;-80
2022/10/09 03:30:10;;;;;;;;;;;;;;;10.40;65.29;102536.19;5050622;28;19928;-80
2022/10/09 03:32:44;;;;;;;;;;;;;;;10.40;65.33;102545.91;5051504;28;19921;-79
2022/10/09 03:35:11;;;;;;;;;;;;;;;10.40;65.37;102540.63;5046171;28;20382;-79
2022/10/09 03:38:00;;;;;;;;;;;;;;;;;;;;;
2022/10/09 03:41:06;;;;;;;;;;;;;;;10.38;65.42;102550.31;5030529;28;19967;-79
2022/10/09 03:43:42;;;;;;;;;;;;;;;10.35;65.39;102549.38;5041226;28;20413;-79
2022/10/09 03:46:21;;;;;;;;;;;;;;;10.35;65.33;102544.09;5045778;28;19912;-79
2022/10/09 03:49:14;;;;;;;;;;;;;;;10.33;65.75;102542.28;5046509;28;19959;-80
2022/10/09 03:53:03;;;;;;;;;;;;;;;10.32;65.58;102548.47;5046644;28;19982;-79
2022/10/09 03:54:57;;;;;;;;;;;;;;;;;;;;;
2022/10/09 03:57:33;;;;;;;;;;;;;;;10.31;65.75;102544.91;5047398;28;19967;-79
2022/10/09 03:59:59;;;;;;;;;;;;;;;10.31;65.57;102547.56;5046489;28;19967;-78
2022/10/09 04:02:30;;;;;;;;;;;;;;;10.30;65.64;102544.91;5044356;28;19917;-79
2022/10/09 04:05:01;;;;;;;;;;;;;;;10.30;65.54;102551.09;5041443;28;19917;-79
2022/10/09 04:07:34;;;;;;;;;;;;;;;10.30;65.64;102545.78;5039029;28;19916;-79
2022/10/09 04:10:01;;;;;;;;;;;;;;;10.30;65.87;102545.78;5049813;28;19967;-79
2022/10/09 04:12:29;;;;;;;;;;;;;;;10.30;65.49;102544.91;5044973;28;19929;-79
2022/10/09 04:14:55;;;;;;;;;;;;;;;10.29;65.38;102548.44;5046928;28;20313;-79
2022/10/09 04:17:21;;;;;;;;;;;;;;;10.29;65.60;102546.69;5037392;28;20297;-79
2022/10/09 04:19:57;;;;;;;;;;;;;;;10.28;65.65;102547.56;5038360;28;19921;-80
2022/10/09 04:22:36;;;;;;;;;;;;;;;;;;;;;
2022/10/09 04:25:22;;;;;;;;;;;;;;;10.27;65.54;102545.78;5030891;28;19924;-79
2022/10/09 04:28:07;;;;;;;;;;;;;;;10.25;65.52;102542.22;5048620;28;20449;-79
2022/10/09 04:31:01;;;;;;;;;;;;;;;10.24;65.65;102539.56;5036767;28;20359;-79
2022/10/09 04:33:30;;;;;;;;;;;;;;;10.23;65.54;102533.38;5037148;28;20424;-80
2022/10/09 04:35:56;;;;;;;;;;;;;;;10.20;65.44;102536.91;5051705;28;19923;-80
2022/10/09 04:38:34;;;;;;;;;;;;;;;10.19;65.81;102537.78;5042325;28;20383;-80
2022/10/09 04:41:04;;;;;;;;;;;;;;;10.18;65.38;102533.34;5054300;28;20343;-80
2022/10/09 04:43:36;;;;;;;;;;;;;;;10.17;65.42;102539.50;5039054;28;19923;-81
2022/10/09 04:46:17;;;;;;;;;;;;;;;10.16;65.44;102531.56;5049163;28;19920;-79
2022/10/09 04:48:46;;;;;;;;;;;;;;;10.15;65.26;102527.13;5051867;28;19916;-80
2022/10/09 04:51:33;;;;;;;;;;;;;;;10.14;65.57;102528.00;5051844;28;19982;-80
2022/10/09 04:55:34;;;;;;;;;;;;;;;10.11;65.45;102523.56;5051094;28;20719;-80
2022/10/09 04:57:02;;;;;;;;;;;;;;;10.09;65.69;102519.13;5019292;28;20355;-81
2022/10/09 04:59:29;;;;;;;;;;;;;;;10.06;65.71;102519.97;5039929;28;19913;-81
2022/10/09 05:01:55;;;;;;;;;;;;;;;10.04;65.53;102517.31;5041611;28;19916;-80
2022/10/09 05:04:21;;;;;;;;;;;;;;;10.03;65.34;102525.22;5045981;28;19943;-80
2022/10/09 05:06:50;;;;;;;;;;;;;;;10.01;65.41;102519.94;5049465;28;20035;-81
2022/10/09 05:09:21;;;;;;;;;;;;;;;9.99;65.89;102518.16;5045304;28;19921;-79
2022/10/09 05:11:52;;;;;;;;;;;;;;;9.98;65.57;102522.56;5038405;28;19921;-79
2022/10/09 05:14:18;;;;;;;;;;;;;;;9.97;65.54;102520.78;5042065;28;19917;-78
2022/10/09 05:16:49;;;;;;;;;;;;;;;9.95;65.37;102525.16;5046642;28;19917;-78
2022/10/09 05:19:15;;;;;;;;;;;;;;;9.94;65.54;102519.88;5050997;28;19966;-78
2022/10/09 05:21:41;;;;;;;;;;;;;;;9.93;65.46;102520.72;5047745;28;19975;-79
2022/10/09 05:24:07;;;;;;;;;;;;;;;9.91;65.61;102523.38;5047677;28;19913;-80
2022/10/09 05:26:33;;;;;;;;;;;;;;;9.89;65.38;102527.75;5045347;28;19920;-79
2022/10/09 05:28:59;;;;;;;;;;;;;;;9.89;65.59;102535.69;5044322;28;19927;-79
2022/10/09 05:31:26;;;;;;;;;;;;;;;9.87;65.24;102526.88;5049259;28;19982;-79
2022/10/09 05:33:53;;;;;;;;;;;;;;;9.86;65.06;102511.84;5044346;28;19972;-79
2022/10/09 05:36:20;;;;;;;;;;;;;;;9.85;65.44;102515.38;5041693;28;19917;-79
2022/10/09 05:38:45;;;;;;;;;;;;;;;9.83;65.47;102525.03;5041687;28;19966;-79
2022/10/09 05:41:13;;;;;;;;;;;;;;;9.82;65.54;102520.63;5049553;28;20341;-79
2022/10/09 05:43:40;;;;;;;;;;;;;;;9.81;65.67;102524.16;5047672;28;19925;-80
2022/10/09 05:46:10;;;;;;;;;;;;;;;9.80;65.65;102528.56;5047086;28;20420;-81
2022/10/09 05:48:37;;;;;;;;;;;;;;;9.79;65.75;102526.78;5051547;28;19917;-81
2022/10/09 05:51:07;;;;;;;;;;;;;;;9.79;65.84;102520.59;5044104;28;19921;-80
2022/10/09 05:53:33;;;;;;;;;;;;;;;9.79;65.79;102524.13;5036212;28;20514;-80
2022/10/09 05:56:17;;;;;;;;;;;;;;;9.79;65.70;102526.78;5044579;28;20059;-80
2022/10/09 05:58:44;;;;;;;;;;;;;;;9.77;65.72;102519.69;5038522;28;19916;-80
2022/10/09 06:01:10;;;;;;;;;;;;;;;9.76;65.74;102520.56;5050340;28;19917;-79
2022/10/09 06:03:36;;;;;;;;;;;;;;;9.74;65.95;102523.19;5050415;28;19923;-80
2022/10/09 06:06:03;;;;;;;;;;;;;;;9.74;65.55;102524.97;5052341;28;19917;-79
2022/10/09 06:08:31;;;;;;;;;;;;;;;9.74;65.76;102532.91;5053487;28;20027;-80
2022/10/09 06:10:57;;;;;;;;;;;;;;;9.72;65.78;102530.25;5044667;28;20015;-80
2022/10/09 06:13:23;;;;;;;;;;;;;;;9.73;66.02;102532.00;5052047;28;20394;-80
2022/10/09 06:15:50;;;;;;;;;;;;;;;9.71;66.07;102529.34;5047574;28;19917;-80
2022/10/09 06:18:31;;;;;;;;;;;;;;;9.71;65.98;102532.00;5044838;22;19925;-80
2022/10/09 06:21:09;;;;;;;;;;;;;;;9.71;65.85;102526.69;5032733;28;19929;-80
2022/10/09 06:23:59;;;;;;;;;;;;;;;;;;;;;
2022/10/09 06:27:17;;;;;;;;;;;;;;;;;;;;;
2022/10/09 06:30:19;;;;;;;;;;;;;;;9.71;65.81;102532.00;4934234;29;19930;-80
2022/10/09 06:33:04;;;;;;;;;;;;;;;;;;;;;
2022/10/09 06:36:08;;;;;;;;;;;;;;;9.72;67.05;102535.53;4934323;28;19962;-81
2022/10/09 06:39:44;;;;;;;;;;;;;;;9.76;67.06;102531.13;4896564;29;19980;-80
2022/10/09 06:42:05;;;;;;;;;;;;;;;;;;;;;
2022/10/09 06:45:00;;;;;;;;;;;;;;;9.83;67.00;102533.00;4884732;29;20301;-80
2022/10/09 06:47:31;;;;;;;;;;;;;;;9.87;66.93;102534.81;4892552;29;19923;-80
2022/10/09 06:50:23;;;;;;;;;;;;;;;9.91;67.05;102539.25;4896779;29;19919;-80
2022/10/09 06:52:58;;;;;;;;;;;;;;;9.93;67.26;102534.88;4890068;29;19971;-81
2022/10/09 06:55:37;;;;;;;;;;;;;;;9.99;66.79;102526.09;4897964;29;19916;-80
2022/10/09 06:58:03;;;;;;;;;;;;;;;10.02;67.34;102523.50;4896784;29;19919;-80
2022/10/09 07:00:40;;;;;;;;;;;;;;;10.07;67.29;102528.81;4888167;29;19930;-81
2022/10/09 07:03:13;;;;;;;;;;;;;;;10.10;67.06;102527.06;4881504;29;19924;-82
2022/10/09 07:05:46;;;;;;;;;;;;;;;10.15;67.01;102527.13;4877033;29;19919;-82
2022/10/09 07:08:43;;;;;;;;;;;;;;;10.21;66.92;102529.81;4885083;29;20117;-81
2022/10/09 07:11:35;;;;;;;;;;;;;;;10.25;66.74;102522.78;5031575;28;20040;-81
2022/10/09 07:14:04;;;;;;;;;;;;;;;10.30;66.58;102532.53;5028495;28;20342;-81
2022/10/09 07:16:52;;;;;;;;;;;;;;;10.35;66.85;102525.53;5025883;28;19928;-80
2022/10/09 07:19:21;;;;;;;;;;;;;;;10.41;66.91;102527.38;5031011;28;19975;-80
2022/10/09 07:21:56;;;;;;;;;;;;;;;10.47;66.72;102526.53;5031061;28;19917;-80
2022/10/09 07:24:32;;;;;;;;;;;;;;;10.51;66.93;102523.03;5033401;28;19917;-80
2022/10/09 07:27:09;;;;;;;;;;;;;;;10.56;67.10;102533.66;5031996;28;19917;-80
2022/10/09 07:29:35;;;;;;;;;;;;;;;10.59;67.84;102537.22;5027151;28;19932;-79
2022/10/09 07:32:01;;;;;;;;;;;;;;;10.64;67.17;102530.19;5029406;28;20016;-80
2022/10/09 07:34:27;;;;;;;;;;;;;;;10.71;67.30;102530.25;5025986;28;19924;-79
2022/10/09 07:36:56;;;;;;;;;;;;;;;10.77;67.36;102530.28;5029042;28;19926;-80
2022/10/09 07:39:35;;;;;;;;;;;;;;;10.81;67.57;102530.28;5030998;28;19921;-80
2022/10/09 07:42:32;;;;;;;;;;;;;;;10.88;67.88;102528.56;5025953;28;19924;-80
2022/10/09 07:45:06;;;;;;;;;;;;;;;10.97;67.19;102525.97;5011394;28;19917;-80
2022/10/09 07:47:32;;;;;;;;;;;;;;;11.02;68.12;102519.81;5031962;28;19932;-80
2022/10/09 07:50:00;;;;;;;;;;;;;;;11.10;67.33;102518.06;5032048;28;20555;-81
2022/10/09 07:52:28;;;;;;;;;;;;;;;11.16;68.13;102515.44;5031303;28;19929;-80
2022/10/09 07:54:57;;;;;;;;;;;;;;;11.25;67.69;102519.91;5029238;28;19913;-80
2022/10/09 07:57:33;;;;;;;;;;;;;;;11.36;67.55;102517.31;5033736;28;19924;-81
2022/10/09 07:59:59;;;;;;;;;;;;;;;11.42;68.44;102519.97;5022984;28;19913;-81
2022/10/09 08:02:27;;;;;;;;;;;;;;;11.53;67.50;102518.25;5032752;28;19917;-81
2022/10/09 08:04:53;;;;;;;;;;;;;;;11.62;68.20;102512.94;5032244;28;20051;-80
2022/10/09 08:07:19;;;;;;;;;;;;;;;11.72;67.70;102518.28;5030134;28;19921;-79
2022/10/09 08:09:48;;;;;;;;;;;;;;;11.81;67.45;102519.19;5027630;28;19927;-81
2022/10/09 08:12:14;;;;;;;;;;;;;;;11.90;68.19;102515.66;5029225;28;19929;-81
2022/10/09 08:14:40;;;;;;;;;;;;;;;11.96;67.77;102507.75;5025889;28;19917;-82
2022/10/09 08:17:06;;;;;;;;;;;;;;;12.05;67.57;102504.19;5032777;28;19921;-82
2022/10/09 08:19:32;;;;;;;;;;;;;;;12.14;67.75;102505.97;5033041;28;19974;-82
2022/10/09 08:21:58;;;;;;;;;;;;;;;12.23;67.49;102510.41;5030106;28;19924;-80
2022/10/09 08:24:24;;;;;;;;;;;;;;;12.32;67.34;102514.81;5031857;28;19921;-81
2022/10/09 08:26:50;;;;;;;;;;;;;;;12.40;67.18;102505.06;5035483;28;19999;-80
2022/10/09 08:29:19;;;;;;;;;;;;;;;12.50;67.17;102509.50;5032850;28;19968;-81
2022/10/09 08:31:48;;;;;;;;;;;;;;;12.58;67.13;102507.69;5023934;28;19921;-81
2022/10/09 08:34:14;;;;;;;;;;;;;;;12.69;67.03;102502.38;5029373;28;20387;-81
2022/10/09 08:36:40;;;;;;;;;;;;;;;12.76;66.83;102501.47;5028510;28;19917;-81
2022/10/09 08:39:06;;;;;;;;;;;;;;;12.89;66.43;102501.44;5029965;28;19924;-81
2022/10/09 08:45:00;;;;;;;;;;;;;;;13.08;65.45;102491.59;5080368;27;20391;-80
2022/10/09 08:47:44;;;;;;;;;;;;;;;13.17;65.09;102494.25;5081713;28;19916;-80
2022/10/09 08:50:14;;;;;;;;;;;;;;;13.30;65.29;102486.19;5087622;28;19917;-80
2022/10/09 08:52:45;;;;;;;;;;;;;;;13.41;65.58;102487.06;5081163;28;19978;-81
2022/10/09 08:55:28;;;;;;;;;;;;;;;13.52;65.44;102486.97;5067568;28;19928;-81
2022/10/09 08:57:55;;;;;;;;;;;;;;;13.62;65.50;102488.72;5069556;28;19966;-80
2022/10/09 09:00:22;;;;;;;;;;;;;;;13.71;65.48;102480.66;5067045;28;19917;-80
2022/10/09 09:03:08;;;;;;;;;;;;;;;13.82;64.71;102475.25;5066077;28;19917;-81
2022/10/09 09:08:30;;;;;;;;;;;;;;;14.10;64.83;102469.69;5089718;27;19974;-80
2022/10/09 09:11:16;;;;;;;;;;;;;;;14.22;64.00;102468.72;5088269;28;19916;-81
2022/10/09 09:14:03;;;;;;;;;;;;;;;14.34;63.50;102463.25;5079633;28;19917;-81
2022/10/09 09:16:35;;;;;;;;;;;;;;;14.49;63.39;102467.56;5067957;28;20388;-81
2022/10/09 09:19:12;;;;;;;;;;;;;;;14.53;62.28;102461.28;5067550;28;19919;-81
2022/10/09 09:21:44;;;;;;;;;;;;;;;14.67;61.87;102454.94;5073802;28;19924;-81
2022/10/09 09:24:12;;;;;;;;;;;;;;;14.74;62.48;102456.63;5075187;28;19916;-81
2022/10/09 09:26:41;;;;;;;;;;;;;;;14.86;62.05;102445.81;5081488;28;19981;-81
2022/10/09 09:29:11;;;;;;;;;;;;;;;15.00;61.80;102444.75;5081298;28;19927;-80
2022/10/09 09:31:38;;;;;;;;;;;;;;;15.05;60.43;102440.22;5073783;28;20062;-80
2022/10/09 09:34:10;;;;;;;;;;;;;;;15.23;60.87;102446.22;5081364;28;20003;-80
2022/10/09 09:39:22;;;;;;;;;;;;;;;15.42;60.17;102439.72;5084225;28;19916;-79
2022/10/09 09:41:49;;;;;;;;;;;;;;;15.55;60.83;102428.84;5077530;28;19970;-80
2022/10/09 09:44:20;;;;;;;;;;;;;;;15.66;60.12;102433.13;5077011;28;20366;-80
2022/10/09 09:46:49;;;;;;;;;;;;;;;15.77;59.24;102426.72;5072851;28;19921;-80
2022/10/09 09:49:27;;;;;;;;;;;;;;;;;;;;;
2022/10/09 09:52:05;;;;;;;;;;;;;;;15.96;58.22;102416.63;5061668;28;20275;-82
2022/10/09 09:54:34;;;;;;;;;;;;;;;16.01;57.92;102412.09;5069393;28;20463;-86
2022/10/09 09:57:12;;;;;;;;;;;;;;;16.08;58.01;102412.88;5069798;28;19917;-82
2022/10/09 09:59:40;;;;;;;;;;;;;;;16.22;57.09;102410.81;5070453;28;19927;-82
2022/10/09 10:02:11;;;;;;;;;;;;;;;16.36;57.16;102410.53;5073996;28;19912;-82
2022/10/09 10:04:46;;;;;;;;;;;;;;;16.43;55.90;102406.84;5068589;28;20430;-82
2022/10/09 10:07:12;;;;;;;;;;;;;;;16.55;57.05;102392.34;5073090;28;20030;-82
2022/10/09 10:10:09;;;;;;;;;;;;;;;;;;;;;
2022/10/09 10:15:29;;;;;;;;;;;;;;;16.81;55.87;102389.13;5072444;27;19932;-78
2022/10/09 10:17:58;;;;;;;;;;;;;;;16.95;55.74;102388.00;5069505;28;20373;-78
2022/10/09 10:20:24;;;;;;;;;;;;;;;16.97;54.42;102386.13;5063094;28;19951;-78
2022/10/09 10:22:52;;;;;;;;;;;;;;;17.07;53.76;102384.13;5060820;28;19924;-78
2022/10/09 10:25:19;;;;;;;;;;;;;;;17.19;54.05;102377.63;5062063;28;20299;-79
2022/10/09 10:27:48;;;;;;;;;;;;;;;17.27;54.13;102373.84;5067995;28;19951;-78
2022/10/09 10:30:16;;;;;;;;;;;;;;;17.37;54.25;102373.63;5063782;28;19949;-78
2022/10/09 10:32:53;;;;;;;;;;;;;;;17.48;54.03;102368.00;5063633;28;19916;-79
2022/10/09 10:35:21;;;;;;;;;;;;;;;17.54;54.04;102366.03;5056519;28;20392;-79
2022/10/09 10:37:58;;;;;;;;;;;;;;;17.61;52.69;102372.16;5064291;28;19924;-78
2022/10/09 10:40:29;;;;;;;;;;;;;;;17.45;51.07;102360.94;5055325;28;19932;-79
2022/10/09 10:48:24;;;;;;;;;;;;;;;17.75;51.72;102345.00;5063078;27;19924;-77
2022/10/09 10:51:10;;;;;;;;;;;;;;;17.90;53.08;102343.69;5059189;28;20392;-79
2022/10/09 10:53:56;;;;;;;;;;;;;;;17.99;49.96;102348.84;5056350;28;19936;-78
2022/10/09 10:56:27;;;;;;;;;;;;;;;18.07;49.00;102341.47;5055108;28;20019;-78
2022/10/09 10:59:03;;;;;;;;;;;;;;;18.10;49.56;102338.69;5058429;28;19961;-77
2022/10/09 11:01:43;;;;;;;;;;;;;;;18.15;47.24;102321.59;5054961;28;19928;-77
2022/10/09 11:04:28;;;;;;;;;;;;;;;18.22;47.81;102323.19;5054149;28;20540;-78
2022/10/09 11:07:14;;;;;;;;;;;;;;;18.25;46.33;102317.72;5052782;28;20368;-78
2022/10/09 11:09:51;;;;;;;;;;;;;;;18.30;46.62;102310.41;5053536;28;20575;-78
2022/10/09 11:15:00;;;;;;;;;;;;;;;18.47;48.04;102299.19;5058878;27;19947;-78
2022/10/09 11:17:33;;;;;;;;;;;;;;;18.58;49.46;102297.06;5045193;28;19932;-79
2022/10/09 11:20:08;;;;;;;;;;;;;;;18.66;48.63;102291.47;5036799;28;19917;-78
2022/10/09 11:25:20;;;;;;;;;;;;;;;18.80;47.54;102271.34;5107961;27;19920;-78
2022/10/09 11:30:25;;;;;;;;;;;;;;;18.88;47.62;102264.81;5108584;27;19924;-77
2022/10/09 11:33:01;;;;;;;;;;;;;;;18.93;45.72;102275.44;5096849;28;20014;-77
2022/10/09 11:35:46;;;;;;;;;;;;;;;19.00;46.59;102268.91;5095346;28;19939;-77
2022/10/09 11:38:21;;;;;;;;;;;;;;;19.04;45.81;102270.59;5095764;28;19920;-77
2022/10/09 11:40:47;;;;;;;;;;;;;;;19.08;45.87;102258.81;5093112;28;19920;-77
2022/10/09 11:43:29;;;;;;;;;;;;;;;19.16;47.08;102249.63;5097665;28;19924;-78
2022/10/09 11:45:59;;;;;;;;;;;;;;;19.24;46.59;102252.94;5093355;28;19983;-78
2022/10/09 11:51:11;;;;;;;;;;;;;;;19.31;45.75;102243.72;5059010;27;20532;-78
2022/10/09 11:53:40;;;;;;;;;;;;;;;19.38;46.31;102244.41;5044561;28;20392;-79
2022/10/09 11:56:07;;;;;;;;;;;;;;;19.42;45.88;102231.72;5036888;28;19921;-78
2022/10/09 11:58:34;;;;;;;;;;;;;;;19.47;43.91;102236.00;5036018;28;19929;-78
2022/10/09 12:01:12;;;;;;;;;;;;;;;19.52;44.63;102227.78;5033883;28;19925;-79
2022/10/09 12:03:39;;;;;;;;;;;;;;;19.55;45.50;102224.97;5038809;28;20285;-79
2022/10/09 12:11:37;;;;;;;;;;;;;;;19.68;45.75;102202.09;5077669;27;20342;-83
2022/10/09 12:14:04;;;;;;;;;;;;;;;19.66;45.90;102197.69;5079898;28;19944;-84
2022/10/09 12:16:33;;;;;;;;;;;;;;;19.65;45.39;102196.84;5075761;28;19920;-83
2022/10/09 12:19:01;;;;;;;;;;;;;;;19.65;45.89;102179.81;5069842;28;19916;-84
2022/10/09 12:21:31;;;;;;;;;;;;;;;19.67;45.98;102183.34;5078654;28;20558;-85
2022/10/09 12:23:57;;;;;;;;;;;;;;;19.64;45.78;102172.66;5074792;28;19943;-85
2022/10/09 12:26:27;;;;;;;;;;;;;;;19.62;46.25;102164.66;5075101;28;19925;-86
2022/10/09 12:28:55;;;;;;;;;;;;;;;19.57;46.19;102161.28;5077353;28;19923;-85
2022/10/09 12:34:03;;;;;;;;;;;;;;;19.84;45.93;102153.16;5072098;27;19916;-83
2022/10/09 12:36:30;;;;;;;;;;;;;;;19.87;45.42;102136.88;5062836;28;19935;-85
2022/10/09 12:38:56;;;;;;;;;;;;;;;20.14;44.69;102140.31;5063029;28;20504;-85
2022/10/09 12:41:24;;;;;;;;;;;;;;;20.11;45.37;102128.78;5054171;28;19921;-84
2022/10/09 12:43:52;;;;;;;;;;;;;;;20.14;45.45;102136.75;5056391;28;19924;-84
2022/10/09 12:46:26;;;;;;;;;;;;;;;20.27;43.90;102119.16;5058879;28;20396;-84
2022/10/09 12:48:53;;;;;;;;;;;;;;;20.42;43.69;102114.09;5053452;28;19924;-84
2022/10/09 12:51:22;;;;;;;;;;;;;;;20.45;44.47;102111.25;5056981;28;19917;-83
2022/10/09 12:53:49;;;;;;;;;;;;;;;20.56;44.62;102111.72;5058587;28;19956;-82
2022/10/09 12:56:20;;;;;;;;;;;;;;;20.61;44.14;102107.00;5056597;28;19967;-82
2022/10/09 12:58:46;;;;;;;;;;;;;;;20.59;43.57;102099.94;5056266;28;19947;-83
2022/10/09 13:01:13;;;;;;;;;;;;;;;20.59;42.69;102087.34;5078709;28;19933;-81
2022/10/09 13:03:41;;;;;;;;;;;;;;;20.63;43.21;102088.09;5086140;28;19983;-82
2022/10/09 13:06:25;;;;;;;;;;;;;;;20.62;41.90;102080.94;5068929;28;20395;-83
2022/10/09 13:08:56;;;;;;;;;;;;;;;20.58;43.25;102079.34;5056110;28;20338;-82
2022/10/09 13:11:29;;;;;;;;;;;;;;;20.52;43.45;102080.47;5057198;28;20007;-82
2022/10/09 13:13:55;;;;;;;;;;;;;;;20.38;43.29;102072.09;5062756;28;20023;-81
2022/10/09 13:16:22;;;;;;;;;;;;;;;20.39;42.89;102073.84;5063449;28;19913;-81
2022/10/09 13:19:03;;;;;;;;;;;;;;;20.42;42.83;102065.66;5065306;28;19920;-81
2022/10/09 13:21:30;;;;;;;;;;;;;;;20.48;43.60;102057.31;5066686;28;19962;-81
2022/10/09 13:24:12;;;;;;;;;;;;;;;20.53;43.40;102057.97;5068064;28;20007;-81
2022/10/09 13:26:39;;;;;;;;;;;;;;;20.54;43.05;102057.06;5066971;28;19925;-82
2022/10/09 13:29:06;;;;;;;;;;;;;;;20.59;43.04;102044.25;5066416;28;20284;-82
2022/10/09 13:31:32;;;;;;;;;;;;;;;20.60;42.19;102037.94;5067087;28;19917;-82
2022/10/09 13:33:59;;;;;;;;;;;;;;;20.57;43.25;102029.97;5088760;28;19924;-82
2022/10/09 13:36:25;;;;;;;;;;;;;;;20.56;43.44;102028.25;5088076;28;20074;-83
2022/10/09 13:38:51;;;;;;;;;;;;;;;20.59;42.93;102021.84;5088479;28;20043;-82
2022/10/09 13:41:20;;;;;;;;;;;;;;;20.60;43.02;102024.47;5089815;28;20498;-82
2022/10/09 13:43:47;;;;;;;;;;;;;;;20.59;42.93;102017.34;5083051;28;19924;-82
2022/10/09 13:46:15;;;;;;;;;;;;;;;20.57;43.28;102013.81;5072108;28;19974;-81
2022/10/09 13:48:41;;;;;;;;;;;;;;;20.51;42.68;102009.59;5072420;28;20375;-82
2022/10/09 13:51:08;;;;;;;;;;;;;;;20.48;43.11;102012.41;5075159;28;19920;-83
2022/10/09 13:53:34;;;;;;;;;;;;;;;20.43;43.56;102008.19;5075770;28;19927;-82
2022/10/09 13:56:03;;;;;;;;;;;;;;;20.38;42.93;102002.13;5072318;28;19912;-82
2022/10/09 13:58:29;;;;;;;;;;;;;;;20.35;43.39;101997.75;5071817;28;19920;-82